Time;durP1;ratioP1;P1;durP2;ratioP2;P2;SDS_P1;SDS_P2;PMS_P1;PMS_P2;Temp;Humidity;BMP_temperature;BMP_pressure;BME280_temperature;BME280_humidity;BME280_pressure;Samples;Min_cycle;Max_cycle;Signal;HPM_P1;HPM_P2
2023/06/05 00:02:07;;;;;;;;;;;22.30;38.90;;;22.48;28.75;98696.72;5030000;27;113810;-80
2023/06/05 00:04:35;;;;;;;;;;;22.30;39.10;;;22.44;29.07;98696.72;5013230;28;125460;-81
2023/06/05 00:07:02;;;;;;;;;;;22.30;39.20;;;22.41;29.11;98691.09;5026982;28;124106;-81
2023/06/05 00:09:29;;;;;;;;;;;22.20;39.20;;;22.38;29.17;98697.47;5022064;27;114984;-81
2023/06/05 00:11:55;;;;;;;;;;;22.20;39.30;;;22.33;29.21;98693.06;5017769;27;114528;-81
2023/06/05 00:14:22;;;;;;;;;;;22.20;39.30;;;22.29;29.00;98697.84;5026047;27;125005;-81
2023/06/05 00:16:51;;;;;;;;;;;22.10;39.20;;;22.25;29.25;98694.22;5025693;27;123942;-81
2023/06/05 00:19:17;;;;;;;;;;;22.10;39.20;;;22.22;28.98;98701.44;5025832;27;115626;-81
2023/06/05 00:21:44;;;;;;;;;;;22.00;39.20;;;22.19;29.16;98702.22;5026707;27;115283;-81
2023/06/05 00:24:10;;;;;;;;;;;22.00;39.20;;;22.15;29.30;98698.53;5027416;27;124188;-81
2023/06/05 00:26:36;;;;;;;;;;;22.00;39.30;;;22.13;29.17;98700.94;5031345;27;123746;-81
2023/06/05 00:29:02;;;;;;;;;;;21.90;39.20;;;22.11;29.00;98699.69;5019830;27;114425;-81
2023/06/05 00:31:28;;;;;;;;;;;21.90;39.30;;;22.07;29.12;98699.69;5016823;27;113803;-81
2023/06/05 00:33:55;;;;;;;;;;;21.90;39.40;;;22.03;29.15;98694.06;5025217;27;124600;-81
2023/06/05 00:36:22;;;;;;;;;;;21.80;39.40;;;21.99;29.22;98701.66;5037471;27;123853;-81
2023/06/05 00:38:50;;;;;;;;;;;21.80;39.40;;;21.95;29.28;98700.84;5032181;27;114149;-82
2023/06/05 00:41:19;;;;;;;;;;;21.80;39.60;;;21.91;29.53;98702.78;5033424;27;113778;-82
2023/06/05 00:43:47;;;;;;;;;;;21.70;39.50;;;21.88;29.67;98702.78;5033482;27;124337;-82
2023/06/05 00:46:16;;;;;;;;;;;21.70;39.60;;;21.84;29.36;98708.34;5017124;27;123004;-81
2023/06/05 00:48:46;;;;;;;;;;;21.70;39.70;;;21.82;29.75;98705.16;5022810;27;114518;-81
2023/06/05 00:51:15;;;;;;;;;;;21.60;40.40;;;21.79;29.81;98698.31;5014882;27;113799;-81
2023/06/05 00:53:45;;;;;;;;;;;21.60;39.90;;;21.76;29.66;98706.69;5020312;27;124878;-81
2023/06/05 00:56:11;;;;;;;;;;;21.50;40.00;;;21.71;30.20;98705.06;5029019;27;124624;-83
2023/06/05 00:58:41;;;;;;;;;;;21.50;40.20;;;21.69;30.07;98709.47;5027225;28;115013;-81
2023/06/05 01:01:10;;;;;;;;;;;21.50;40.40;;;21.65;30.41;98705.81;5030905;27;113769;-83
2023/06/05 01:03:39;;;;;;;;;;;21.40;40.50;;;21.61;30.53;98706.59;5028883;27;124613;-82
2023/06/05 01:06:05;;;;;;;;;;;21.40;40.60;;;21.56;30.57;98698.50;5029811;27;124125;-82
2023/06/05 01:08:41;;;;;;;;;;;21.40;40.80;;;21.52;30.14;98703.31;5029649;27;115286;-82
2023/06/05 01:11:23;;;;;;;;;;;21.30;40.80;;;21.47;30.60;98708.47;5028636;27;114970;-82
2023/06/05 01:14:02;;;;;;;;;;;21.30;40.90;;;21.42;30.41;98709.63;5028285;27;124233;-82
2023/06/05 01:16:32;;;;;;;;;;;21.20;40.90;;;21.38;31.04;98708.78;5027887;28;123949;-82
2023/06/05 01:19:02;;;;;;;;;;;21.20;41.10;;;21.31;30.55;98706.69;5028920;27;114487;-82
2023/06/05 01:21:35;;;;;;;;;;;21.10;41.10;;;21.27;30.92;98703.03;5011567;28;113003;-83
2023/06/05 01:24:01;;;;;;;;;;;21.10;42.00;;;21.21;30.87;98698.97;5028188;27;123220;-82
2023/06/05 01:26:43;;;;;;;;;;;21.10;41.40;;;21.17;31.23;98701.75;5023854;27;124420;-82
2023/06/05 01:29:16;;;;;;;;;;;21.00;41.50;;;21.14;31.22;98704.50;5016064;27;114612;-83
2023/06/05 01:31:44;;;;;;;;;;;21.00;41.70;;;21.11;31.24;98713.69;5031531;27;113857;-82
2023/06/05 01:34:13;;;;;;;;;;;20.90;41.80;;;21.06;31.23;98709.22;5031434;27;123675;-83
2023/06/05 01:36:40;;;;;;;;;;;20.90;41.90;;;21.04;31.61;98711.63;5011779;28;124505;-83
2023/06/05 01:39:07;;;;;;;;;;;20.80;41.80;;;21.00;31.26;98713.59;5027021;27;115533;-82
2023/06/05 01:41:33;;;;;;;;;;;20.80;41.90;;;20.97;31.72;98705.94;5027880;27;113985;-83
2023/06/05 01:44:00;;;;;;;;;;;20.80;42.00;;;20.95;31.40;98705.50;5030110;27;124804;-83
2023/06/05 01:46:26;;;;;;;;;;;20.80;42.10;;;20.91;31.24;98697.03;5019173;27;124060;-83
2023/06/05 01:48:54;;;;;;;;;;;20.70;42.00;;;20.89;31.38;98701.44;5028458;27;114512;-83
2023/06/05 01:51:20;;;;;;;;;;;20.70;42.00;;;20.84;31.34;98696.94;5027673;27;113490;-83
2023/06/05 01:53:48;;;;;;;;;;;20.60;42.00;;;20.82;31.59;98699.38;5024526;28;123863;-82
2023/06/05 01:56:19;;;;;;;;;;;20.60;42.10;;;20.80;31.64;98703.75;5024295;27;124422;-83
2023/06/05 01:58:48;;;;;;;;;;;20.60;42.30;;;20.77;32.00;98707.28;5023950;27;115368;-82
2023/06/05 02:01:18;;;;;;;;;;;20.60;42.50;;;20.75;31.91;98707.69;5032268;27;115490;-82
2023/06/05 02:03:47;;;;;;;;;;;20.50;42.50;;;20.72;32.09;98709.25;5028682;28;124233;-83
2023/06/05 02:06:16;;;;;;;;;;;20.50;42.50;;;20.71;32.26;98706.81;5029241;27;124093;-82
2023/06/05 02:08:42;;;;;;;;;;;20.50;42.70;;;20.68;32.06;98699.97;5022520;28;114477;-82
2023/06/05 02:11:11;;;;;;;;;;;20.40;42.80;;;20.65;32.36;98695.13;5034912;27;113941;-83
2023/06/05 02:13:43;;;;;;;;;;;20.40;42.80;;;20.63;32.57;98703.16;5023126;27;124787;-82
2023/06/05 02:16:13;;;;;;;;;;;20.40;42.80;;;20.60;32.34;98698.28;5016047;27;123087;-82
2023/06/05 02:18:39;;;;;;;;;;;20.40;43.00;;;20.59;32.26;98704.28;5032781;27;114375;-82
2023/06/05 02:21:05;;;;;;;;;;;20.40;43.10;;;20.55;32.42;98698.59;5028271;28;113887;-84
2023/06/05 02:23:32;;;;;;;;;;;20.30;43.10;;;20.54;32.45;98696.19;5026985;27;123962;-82
2023/06/05 02:25:58;;;;;;;;;;;20.30;43.30;;;20.50;32.59;98704.56;5027801;27;124064;-84
2023/06/05 02:28:25;;;;;;;;;;;20.30;43.50;;;20.47;32.97;98700.50;5028532;27;114377;-85
2023/06/05 02:30:51;;;;;;;;;;;20.30;43.70;;;20.45;32.99;98696.47;5020566;28;113920;-84
2023/06/05 02:33:17;;;;;;;;;;;20.20;43.80;;;20.41;33.28;98704.81;5018670;28;123829;-84
2023/06/05 02:35:43;;;;;;;;;;;20.20;44.00;;;20.37;33.35;98705.97;5014962;27;124322;-85
2023/06/05 02:38:12;;;;;;;;;;;20.20;44.10;;;20.33;33.14;98702.31;5029623;27;114336;-85
2023/06/05 02:40:38;;;;;;;;;;;20.10;44.20;;;20.27;33.63;98699.03;5030533;27;113821;-85
2023/06/05 02:43:05;;;;;;;;;;;20.10;44.40;;;20.22;33.43;98697.34;5016890;28;123859;-85
2023/06/05 02:45:33;;;;;;;;;;;20.00;44.40;;;20.20;33.70;98701.72;5039206;27;123012;-85
2023/06/05 02:47:59;;;;;;;;;;;20.00;44.60;;;20.18;33.87;98701.31;5026768;27;115239;-85
2023/06/05 02:50:25;;;;;;;;;;;20.00;44.70;;;20.13;33.94;98696.84;5029351;27;114845;-85
2023/06/05 02:52:52;;;;;;;;;;;19.90;44.70;;;20.12;33.66;98700.00;5023961;27;124413;-85
2023/06/05 02:55:18;;;;;;;;;;;19.90;44.80;;;20.09;33.81;98693.16;5013811;27;124624;-82
2023/06/05 02:57:48;;;;;;;;;;;19.90;44.80;;;20.06;33.96;98697.53;5027071;27;114209;-85
2023/06/05 03:00:18;;;;;;;;;;;19.90;44.90;;;20.03;33.93;98694.69;4999971;27;112714;-85
2023/06/05 03:02:48;;;;;;;;;;;19.80;44.90;;;20.02;33.87;98698.69;5026316;27;124274;-85
2023/06/05 03:05:15;;;;;;;;;;;19.80;45.00;;;19.99;33.97;98696.63;5027714;27;124108;-84
2023/06/05 03:07:42;;;;;;;;;;;19.80;45.10;;;19.96;34.20;98698.19;5034953;27;113351;-85
2023/06/05 03:10:08;;;;;;;;;;;19.70;45.20;;;19.94;34.31;98696.97;5027341;27;113943;-85
2023/06/05 03:12:34;;;;;;;;;;;19.70;45.30;;;19.90;34.24;98699.69;5028320;27;124692;-85
2023/06/05 03:15:01;;;;;;;;;;;19.60;45.30;;;19.85;34.34;98712.06;5022563;27;124786;-85
2023/06/05 03:17:28;;;;;;;;;;;19.60;45.50;;;19.81;34.59;98702.78;5016581;27;114980;-85
2023/06/05 03:19:55;;;;;;;;;;;19.60;45.60;;;19.78;34.58;98709.13;5030100;27;113946;-85
2023/06/05 03:22:21;;;;;;;;;;;19.60;45.70;;;19.76;34.67;98700.28;5026774;27;124250;-85
2023/06/05 03:24:47;;;;;;;;;;;19.50;45.80;;;19.74;34.79;98705.44;5032519;27;123966;-85
2023/06/05 03:27:14;;;;;;;;;;;19.50;45.90;;;19.73;34.96;98703.84;5028116;27;115063;-85
2023/06/05 03:29:40;;;;;;;;;;;19.50;46.00;;;19.69;35.01;98700.16;5014279;28;113559;-85
2023/06/05 03:32:06;;;;;;;;;;;19.50;46.10;;;19.67;34.99;98705.34;5009403;28;122438;-85
2023/06/05 03:34:36;;;;;;;;;;;19.50;46.20;;;19.64;35.18;98714.50;5030887;27;123459;-85
2023/06/05 03:37:03;;;;;;;;;;;19.40;46.20;;;19.61;34.92;98710.44;5026967;27;115642;-85
2023/06/05 03:39:29;;;;;;;;;;;19.40;46.30;;;19.59;35.01;98712.00;5035329;27;114746;-85
2023/06/05 03:41:58;;;;;;;;;;;19.40;46.30;;;19.56;35.06;98707.16;5030002;27;118321;-84
2023/06/05 03:44:24;;;;;;;;;;;19.30;46.40;;;19.53;35.21;98716.28;5027829;27;123787;-85
2023/06/05 03:46:53;;;;;;;;;;;19.30;46.40;;;19.50;35.45;98719.81;5029896;27;114334;-85
2023/06/05 03:49:20;;;;;;;;;;;19.30;46.50;;;19.50;35.25;98719.81;5030067;27;113470;-85
2023/06/05 03:51:46;;;;;;;;;;;19.30;46.50;;;19.53;35.18;98708.69;5027080;27;123524;-85
2023/06/05 03:54:13;;;;;;;;;;;19.30;46.70;;;19.57;35.41;98712.34;5022213;27;124085;-85
2023/06/05 03:56:43;;;;;;;;;;;19.30;46.70;;;19.57;35.09;98706.75;5027447;27;114428;-85
2023/06/05 03:59:19;;;;;;;;;;;19.20;46.60;;;19.57;35.22;98719.97;5014419;28;112800;-85
2023/06/05 04:01:45;;;;;;;;;;;19.30;46.80;;;19.61;35.27;98715.22;5021577;27;124844;-85
2023/06/05 04:04:12;;;;;;;;;;;19.30;46.90;;;19.72;35.11;98721.84;5012653;27;123954;-85
2023/06/05 04:06:40;;;;;;;;;;;19.20;46.90;;;19.79;34.89;98721.16;5011756;27;115212;-84
2023/06/05 04:09:12;;;;;;;;;;;18.90;46.60;;;19.85;34.94;98723.28;5017424;27;113780;-85
2023/06/05 04:11:43;;;;;;;;;;;19.30;47.00;;;19.87;34.77;98728.47;5025843;27;124428;-84
2023/06/05 04:14:10;;;;;;;;;;;19.30;46.90;;;19.86;35.00;98732.50;5027130;27;123729;-84
2023/06/05 04:16:42;;;;;;;;;;;19.40;46.90;;;19.80;34.96;98732.00;5023527;27;114633;-84
2023/06/05 04:19:10;;;;;;;;;;;19.30;46.70;;;19.76;34.99;98727.50;5021668;27;113868;-84
2023/06/05 04:21:37;;;;;;;;;;;19.40;46.80;;;19.71;35.00;98728.63;5021321;28;124385;-84
2023/06/05 04:24:06;;;;;;;;;;;19.30;46.70;;;19.67;35.07;98735.38;5010295;28;125381;-84
2023/06/05 04:26:33;;;;;;;;;;;19.40;46.80;;;19.63;35.07;98735.28;5026662;27;118554;-83
2023/06/05 04:29:02;;;;;;;;;;;19.30;46.70;;;19.57;35.20;98731.19;5018865;27;114643;-84
2023/06/05 04:31:30;;;;;;;;;;;19.30;46.90;;;19.46;35.41;98739.41;5026338;27;124882;-84
2023/06/05 04:33:57;;;;;;;;;;;19.20;46.80;;;19.39;35.59;98742.06;5012370;27;123241;-84
2023/06/05 04:36:23;;;;;;;;;;;19.10;46.80;;;19.37;35.42;98731.25;5014843;27;114389;-84
2023/06/05 04:38:49;;;;;;;;;;;19.10;46.90;;;19.39;35.63;98734.47;5020756;27;112855;-83
2023/06/05 04:41:16;;;;;;;;;;;19.10;47.00;;;19.41;35.51;98732.09;5032311;27;124249;-84
2023/06/05 04:43:42;;;;;;;;;;;19.10;47.10;;;19.46;35.65;98741.41;5014023;27;123885;-85
2023/06/05 04:46:11;;;;;;;;;;;19.10;47.20;;;19.48;35.66;98736.19;5024316;27;115075;-83
2023/06/05 04:48:37;;;;;;;;;;;19.10;47.30;;;19.49;35.49;98738.66;5017706;27;113047;-84
2023/06/05 04:51:03;;;;;;;;;;;19.20;47.30;;;19.52;35.45;98739.88;5015071;28;125890;-84
2023/06/05 04:53:31;;;;;;;;;;;19.20;47.30;;;19.56;35.65;98735.16;5028697;27;122944;-84
2023/06/05 04:56:00;;;;;;;;;;;19.20;47.30;;;19.59;35.53;98740.03;5016517;27;113538;-82
2023/06/05 04:58:26;;;;;;;;;;;19.20;47.30;;;19.61;35.41;98727.25;5018553;27;113938;-83
2023/06/05 05:01:04;;;;;;;;;;;19.20;48.00;;;19.64;35.38;98734.09;5023745;27;124175;-82
2023/06/05 05:03:31;;;;;;;;;;;19.30;47.40;;;19.64;35.68;98736.91;5029034;27;123241;-82
2023/06/05 05:05:57;;;;;;;;;;;19.30;47.40;;;19.67;35.61;98735.38;5018375;27;113899;-83
2023/06/05 05:08:24;;;;;;;;;;;19.30;47.50;;;19.71;35.58;98736.25;5019659;27;113652;-83
2023/06/05 05:10:51;;;;;;;;;;;19.30;47.50;;;19.73;35.60;98737.47;5031062;27;124510;-82
2023/06/05 05:13:22;;;;;;;;;;;19.40;47.60;;;19.77;35.70;98740.34;5021885;27;123899;-82
2023/06/05 05:15:52;;;;;;;;;;;19.40;47.60;;;19.80;35.45;98737.59;5037831;27;115114;-82
2023/06/05 05:18:22;;;;;;;;;;;19.40;47.60;;;19.80;35.72;98737.59;5049011;27;114893;-83
2023/06/05 05:20:48;;;;;;;;;;;19.40;47.70;;;19.82;35.53;98740.81;5042332;27;123939;-82
2023/06/05 05:23:15;;;;;;;;;;;19.40;47.70;;;19.83;35.59;98736.06;5037440;27;124026;-82
2023/06/05 05:25:41;;;;;;;;;;;19.40;47.70;;;19.86;35.90;98738.09;5029743;27;114499;-83
2023/06/05 05:28:09;;;;;;;;;;;19.50;47.90;;;19.86;35.82;98738.91;5030155;28;114090;-83
2023/06/05 05:30:36;;;;;;;;;;;19.40;48.10;;;19.90;36.00;98746.56;5029838;27;124056;-83
2023/06/05 05:33:02;;;;;;;;;;;19.50;48.10;;;19.92;35.80;98736.59;5025401;27;124508;-84
2023/06/05 05:35:28;;;;;;;;;;;19.50;48.10;;;19.99;35.70;98741.50;5025494;27;114547;-84
2023/06/05 05:37:55;;;;;;;;;;;19.60;48.10;;;20.04;35.62;98746.78;5020154;27;113630;-84
2023/06/05 05:40:21;;;;;;;;;;;19.60;48.00;;;20.07;35.83;98737.63;5033332;27;124630;-84
2023/06/05 05:42:47;;;;;;;;;;;19.60;48.00;;;20.13;35.76;98741.72;5028796;27;123850;-84
2023/06/05 05:45:14;;;;;;;;;;;19.70;48.00;;;20.21;35.63;98735.03;5014198;27;112390;-84
2023/06/05 05:47:40;;;;;;;;;;;19.70;47.90;;;20.29;35.33;98744.34;5025318;27;113953;-84
2023/06/05 05:50:06;;;;;;;;;;;19.80;47.90;;;20.36;35.34;98749.25;5033772;27;124215;-83
2023/06/05 05:52:33;;;;;;;;;;;19.80;47.80;;;20.40;35.21;98750.91;5017172;27;123630;-83
2023/06/05 05:55:03;;;;;;;;;;;19.90;47.80;;;20.46;35.05;98745.78;5030929;27;115690;-83
2023/06/05 05:57:30;;;;;;;;;;;20.00;47.80;;;20.52;35.57;98744.25;5016782;27;113887;-83
2023/06/05 05:59:56;;;;;;;;;;;20.00;47.80;;;20.61;34.72;98746.84;5027843;27;124457;-82
2023/06/05 06:02:22;;;;;;;;;;;20.10;47.80;;;20.67;35.17;98746.09;5030658;27;122924;-85
2023/06/05 06:04:50;;;;;;;;;;;20.10;47.60;;;20.72;34.93;98751.38;5014719;28;114844;-85
2023/06/05 06:07:16;;;;;;;;;;;20.20;47.50;;;20.78;34.83;98751.84;5027781;27;114680;-85
2023/06/05 06:09:44;;;;;;;;;;;20.20;47.50;;;20.82;34.51;98754.69;5027703;28;124193;-85
2023/06/05 06:12:13;;;;;;;;;;;20.30;47.40;;;20.80;34.52;98757.09;5027474;27;124093;-85
2023/06/05 06:14:39;;;;;;;;;;;20.30;47.40;;;20.77;34.41;98753.06;5015423;27;114205;-85
2023/06/05 06:17:09;;;;;;;;;;;20.20;47.00;;;20.76;34.62;98745.00;5015780;27;113635;-87
2023/06/05 06:19:38;;;;;;;;;;;20.30;47.00;;;20.82;34.35;98749.06;5011909;27;123123;-85
2023/06/05 06:22:11;;;;;;;;;;;20.30;46.90;;;20.82;33.95;98749.06;5022238;27;124175;-85
2023/06/05 06:24:43;;;;;;;;;;;20.30;46.80;;;20.80;34.13;98751.47;5029150;27;113603;-84
2023/06/05 06:27:12;;;;;;;;;;;20.20;46.80;;;20.78;34.31;98753.84;5010120;28;113151;-83
2023/06/05 06:29:48;;;;;;;;;;;20.20;47.00;;;20.74;34.54;98746.19;5025027;27;123724;-85
2023/06/05 06:32:16;;;;;;;;;;;20.20;47.20;;;20.74;34.70;98749.00;5018643;27;123883;-84
2023/06/05 06:34:44;;;;;;;;;;;20.20;47.40;;;20.80;34.77;98751.47;5012745;27;114582;-84
2023/06/05 06:37:15;;;;;;;;;;;20.30;47.40;;;20.83;34.35;98750.72;5028451;27;113652;-86
2023/06/05 06:39:42;;;;;;;;;;;20.30;47.40;;;20.83;34.39;98751.53;5019051;27;124265;-84
2023/06/05 06:42:10;;;;;;;;;;;20.30;47.40;;;20.84;34.52;98752.31;5035045;27;124072;-83
2023/06/05 06:44:39;;;;;;;;;;;20.30;46.90;;;20.81;34.15;98758.72;5030978;27;114911;-84
2023/06/05 06:47:06;;;;;;;;;;;20.20;47.00;;;20.81;34.79;98755.91;5028132;27;113670;-84
2023/06/05 06:49:33;;;;;;;;;;;20.20;47.40;;;20.86;34.62;98756.38;5038933;27;124750;-84
2023/06/05 06:52:02;;;;;;;;;;;20.30;47.60;;;20.92;34.49;98759.63;5014847;27;124232;-85
2023/06/05 06:54:30;;;;;;;;;;;20.40;47.50;;;20.94;34.37;98748.84;5028535;27;115512;-84
2023/06/05 06:56:57;;;;;;;;;;;20.40;47.30;;;21.01;34.47;98750.91;5026972;27;114528;-84
2023/06/05 06:59:26;;;;;;;;;;;20.50;47.10;;;21.09;34.00;98747.81;5027694;28;124365;-84
2023/06/05 07:02:28;;;;;;;;;;;20.50;47.00;;;21.21;33.90;98748.75;5027931;27;123888;-85
2023/06/05 07:04:57;;;;;;;;;;;20.70;47.20;;;21.34;33.92;98759.31;4989422;28;114448;-84
2023/06/05 07:07:27;;;;;;;;;;;20.70;46.80;;;21.40;33.62;98748.56;5014490;27;113895;-84
2023/06/05 07:09:54;;;;;;;;;;;20.80;46.30;;;21.48;33.48;98746.63;5026285;27;124209;-84
2023/06/05 07:12:22;;;;;;;;;;;20.80;46.20;;;21.57;33.30;98745.13;5040836;27;123691;-84
2023/06/05 07:14:49;;;;;;;;;;;21.00;46.20;;;21.65;33.03;98740.34;5050836;27;114153;-84
2023/06/05 07:17:16;;;;;;;;;;;21.00;46.10;;;21.75;32.88;98739.63;5033841;27;114208;-84
2023/06/05 07:19:42;;;;;;;;;;;21.10;46.20;;;21.83;32.91;98746.13;5027458;28;124402;-83
2023/06/05 07:22:09;;;;;;;;;;;21.20;46.00;;;21.82;33.02;98750.16;5030348;27;123230;-84
2023/06/05 07:24:38;;;;;;;;;;;21.20;45.90;;;21.79;32.67;98743.31;5033867;27;114666;-84
2023/06/05 07:27:05;;;;;;;;;;;21.10;45.80;;;21.78;33.00;98747.28;5030837;27;113830;-83
2023/06/05 07:29:32;;;;;;;;;;;21.10;46.00;;;21.81;32.90;98740.09;5027630;27;123935;-83
2023/06/05 07:31:59;;;;;;;;;;;21.20;46.10;;;21.88;33.00;98748.59;5022327;27;121970;-84
2023/06/05 07:34:26;;;;;;;;;;;21.20;46.20;;;21.98;33.02;98747.06;5028945;27;113879;-84
2023/06/05 07:36:56;;;;;;;;;;;21.30;46.20;;;22.08;33.21;98745.50;5011668;27;113793;-84
2023/06/05 07:39:25;;;;;;;;;;;21.40;46.30;;;22.13;32.95;98742.34;5022639;27;123529;-84
2023/06/05 07:41:52;;;;;;;;;;;21.50;46.40;;;22.13;32.86;98740.31;5028319;28;123605;-84
2023/06/05 07:44:21;;;;;;;;;;;21.50;46.50;;;22.12;33.29;98743.53;5029883;28;114343;-83
2023/06/05 07:46:49;;;;;;;;;;;21.50;46.60;;;22.14;33.45;98738.31;5011712;27;112831;-84
2023/06/05 07:49:18;;;;;;;;;;;21.50;46.50;;;22.20;33.57;98731.16;5010200;28;124415;-84
2023/06/05 07:51:50;;;;;;;;;;;21.60;46.90;;;22.29;33.67;98734.44;5007581;28;122008;-84
2023/06/05 07:54:16;;;;;;;;;;;21.60;47.30;;;22.32;34.06;98730.81;5012855;27;114563;-84
2023/06/05 07:56:43;;;;;;;;;;;21.70;47.80;;;22.38;33.91;98728.44;5013878;28;113978;-84
2023/06/05 07:59:10;;;;;;;;;;;21.70;47.70;;;22.42;34.37;98716.00;5030571;27;124504;-84
2023/06/05 08:01:36;;;;;;;;;;;21.80;47.80;;;22.46;34.02;98721.66;5044517;27;124261;-85
2023/06/05 08:04:04;;;;;;;;;;;21.90;47.90;;;22.55;34.26;98721.31;5014598;27;114716;-84
2023/06/05 08:06:30;;;;;;;;;;;22.00;48.00;;;22.61;34.58;98723.34;5034697;27;114615;-83
2023/06/05 08:08:56;;;;;;;;;;;22.00;48.50;;;22.65;34.77;98717.75;5039172;27;125052;-83
2023/06/05 08:11:23;;;;;;;;;;;22.10;48.80;;;22.71;34.74;98716.97;5025512;28;122518;-82
2023/06/05 08:13:49;;;;;;;;;;;22.10;48.80;;;22.84;34.72;98722.25;5024392;28;114548;-83
2023/06/05 08:16:17;;;;;;;;;;;22.20;48.90;;;22.97;34.76;98719.88;5025263;27;113709;-83
2023/06/05 08:18:46;;;;;;;;;;;22.30;48.90;;;23.06;34.68;98720.31;5027617;27;124078;-84
2023/06/05 08:21:13;;;;;;;;;;;22.40;48.80;;;23.14;34.40;98721.97;5043673;27;123473;-84
2023/06/05 08:23:39;;;;;;;;;;;22.50;49.00;;;23.15;34.49;98717.91;5046279;27;114567;-84
2023/06/05 08:26:10;;;;;;;;;;;22.60;49.10;;;23.18;34.41;98719.13;5037989;27;113803;-84
2023/06/05 08:28:41;;;;;;;;;;;22.60;48.80;;;23.24;34.64;98707.09;5030488;27;124020;-84
2023/06/05 08:31:08;;;;;;;;;;;22.70;48.90;;;23.33;34.91;98710.31;5034046;27;124089;-83
2023/06/05 08:33:35;;;;;;;;;;;22.70;49.20;;;23.38;35.01;98714.75;5030381;27;114475;-84
2023/06/05 08:36:03;;;;;;;;;;;22.80;49.60;;;23.42;34.77;98717.56;5029355;27;114859;-83
2023/06/05 08:38:33;;;;;;;;;;;22.80;49.60;;;23.41;35.06;98708.31;5034722;27;124213;-83
2023/06/05 08:41:01;;;;;;;;;;;22.80;49.90;;;23.37;35.22;98710.31;5038001;27;124441;-83
2023/06/05 08:43:28;;;;;;;;;;;22.80;49.70;;;23.41;35.01;98707.50;5046109;27;114763;-83
2023/06/05 08:45:57;;;;;;;;;;;22.90;49.70;;;23.47;35.04;98709.50;5025194;27;112756;-83
2023/06/05 08:48:25;;;;;;;;;;;22.90;49.70;;;23.52;34.96;98703.47;5035974;27;124325;-83
2023/06/05 08:50:54;;;;;;;;;;;23.00;49.60;;;23.58;35.07;98718.00;5033699;27;124497;-83
2023/06/05 08:53:23;;;;;;;;;;;23.00;49.70;;;23.62;35.11;98710.34;5023005;27;114193;-83
2023/06/05 08:55:53;;;;;;;;;;;23.10;49.80;;;23.67;35.23;98709.13;5017675;28;113653;-83
2023/06/05 08:58:19;;;;;;;;;;;23.10;50.20;;;23.69;35.48;98709.53;5030578;27;124258;-83
2023/06/05 09:00:48;;;;;;;;;;;23.10;50.60;;;23.72;35.52;98695.47;5028778;27;123956;-83
2023/06/05 09:03:18;;;;;;;;;;;23.20;50.70;;;23.77;35.54;98706.31;5031120;27;114507;-84
2023/06/05 09:05:45;;;;;;;;;;;23.20;50.40;;;23.86;35.65;98694.66;5029097;27;113654;-84
2023/06/05 09:08:14;;;;;;;;;;;23.30;50.70;;;23.93;35.34;98694.63;5015016;28;123367;-84
2023/06/05 09:10:40;;;;;;;;;;;23.30;50.70;;;23.94;35.42;98690.63;5016044;27;123323;-84
2023/06/05 09:13:09;;;;;;;;;;;23.40;50.70;;;23.96;35.63;98693.00;5033712;27;113514;-84
2023/06/05 09:15:36;;;;;;;;;;;23.50;50.60;;;23.99;35.55;98693.03;5019817;27;113926;-84
2023/06/05 09:18:11;;;;;;;;;;;23.50;50.50;;;24.07;35.25;98688.16;5025429;27;124413;-83
2023/06/05 09:20:42;;;;;;;;;;;23.60;50.60;;;24.13;35.62;98688.56;5013293;27;123681;-84
2023/06/05 09:23:41;;;;;;;;;;;23.60;50.70;;;24.17;35.21;98692.97;5011479;27;115598;-84
2023/06/05 09:26:10;;;;;;;;;;;23.60;50.60;;;24.26;35.35;98701.03;4988352;28;114093;-84
2023/06/05 09:28:36;;;;;;;;;;;23.70;51.30;;;24.37;35.02;98695.38;5027875;27;124306;-84
2023/06/05 09:31:03;;;;;;;;;;;23.80;50.60;;;24.45;35.15;98680.03;5019305;27;124423;-83
2023/06/05 09:33:33;;;;;;;;;;;23.90;50.60;;;24.50;34.83;98682.41;5041879;27;114997;-84
2023/06/05 09:36:04;;;;;;;;;;;23.90;50.50;;;24.55;35.25;98678.38;5023747;27;114144;-84
2023/06/05 09:38:30;;;;;;;;;;;24.00;50.70;;;24.57;35.17;98681.59;5034899;27;123874;-84
2023/06/05 09:41:07;;;;;;;;;;;24.00;50.60;;;24.57;34.95;98681.59;5049757;27;124102;-84
2023/06/05 09:43:34;;;;;;;;;;;24.00;50.60;;;24.52;35.40;98685.63;5032460;27;114917;-83
2023/06/05 09:46:13;;;;;;;;;;;24.00;50.90;;;24.53;35.58;98680.78;5029766;27;114456;-84
2023/06/05 09:48:41;;;;;;;;;;;24.00;50.80;;;24.56;35.51;98682.81;5026829;27;124430;-84
2023/06/05 09:51:15;;;;;;;;;;;24.10;51.00;;;24.61;35.56;98680.38;5031246;27;123946;-84
2023/06/05 09:53:43;;;;;;;;;;;24.10;51.10;;;24.67;35.40;98675.91;5027986;27;115164;-84
2023/06/05 09:56:14;;;;;;;;;;;24.10;51.10;;;24.76;35.29;98666.16;5030204;27;112860;-84
2023/06/05 09:58:48;;;;;;;;;;;24.20;51.10;;;24.81;35.20;98660.09;5014293;27;124417;-84
2023/06/05 10:01:24;;;;;;;;;;;24.30;51.20;;;24.84;35.40;98656.44;5030679;27;122889;-83
2023/06/05 10:04:00;;;;;;;;;;;24.30;51.00;;;24.92;35.15;98658.00;5015057;27;114862;-84
2023/06/05 10:06:28;;;;;;;;;;;24.40;51.10;;;24.99;34.83;98657.19;5029505;27;114348;-84
2023/06/05 10:08:56;;;;;;;;;;;24.40;50.20;;;25.06;34.11;98657.91;5014498;28;124844;-84
2023/06/05 10:11:24;;;;;;;;;;;24.50;49.70;;;25.10;33.98;98658.72;5010968;28;123418;-84
2023/06/05 10:13:51;;;;;;;;;;;24.50;49.30;;;25.16;33.97;98644.97;5023812;27;115403;-83
2023/06/05 10:16:18;;;;;;;;;;;24.60;49.30;;;25.25;33.63;98652.97;5015011;28;114076;-84
2023/06/05 10:18:48;;;;;;;;;;;24.70;48.80;;;25.31;32.85;98657.00;5015674;27;123516;-84
2023/06/05 10:21:16;;;;;;;;;;;24.80;48.30;;;25.38;33.04;98644.81;5029681;27;123266;-84
2023/06/05 10:23:52;;;;;;;;;;;24.80;48.00;;;25.45;32.26;98645.56;5027821;27;114598;-84
2023/06/05 10:27:00;;;;;;;;;;;24.90;47.40;;;25.48;32.38;98633.41;5027768;27;113871;-84
2023/06/05 10:29:45;;;;;;;;;;;24.90;47.30;;;25.52;30.72;98642.69;5016437;27;124038;-83
2023/06/05 10:32:18;;;;;;;;;;;25.00;46.30;;;25.59;29.74;98644.63;5036920;27;124985;-84
2023/06/05 10:34:53;;;;;;;;;;;25.10;44.20;;;25.65;29.73;98642.16;5037828;27;115044;-84
2023/06/05 10:37:36;;;;;;;;;;;25.10;44.30;;;25.74;29.95;98631.16;5022879;27;113114;-84
2023/06/05 10:40:04;;;;;;;;;;;25.20;44.00;;;25.85;29.32;98639.59;5026816;27;124263;-84
2023/06/05 10:42:34;;;;;;;;;;;25.30;43.90;;;25.94;29.46;98632.19;5025517;27;123717;-83
2023/06/05 10:45:00;;;;;;;;;;;25.30;43.80;;;26.04;28.74;98638.97;5026510;28;114161;-84
2023/06/05 10:47:32;;;;;;;;;;;25.40;42.90;;;26.08;28.91;98639.72;5025789;27;113744;-84
2023/06/05 10:50:31;;;;;;;;;;;25.50;42.70;;;26.10;28.91;98633.66;5016193;27;124171;-84
2023/06/05 10:52:58;;;;;;;;;;;25.60;42.70;;;26.12;28.33;98632.00;4999193;27;123173;-84
2023/06/05 10:55:26;;;;;;;;;;;25.60;41.90;;;26.13;27.41;98636.44;5043481;27;114099;-84
2023/06/05 10:58:13;;;;;;;;;;;25.70;41.10;;;26.11;27.28;98623.91;5027501;27;113934;-83
2023/06/05 11:01:17;;;;;;;;;;;25.70;40.10;;;26.13;26.70;98627.94;5025515;27;124870;-84
2023/06/05 11:03:59;;;;;;;;;;;25.70;40.00;;;26.23;27.41;98620.56;5029107;27;124035;-84
2023/06/05 11:06:27;;;;;;;;;;;25.70;40.30;;;26.36;27.27;98635.78;5018136;27;115462;-83
2023/06/05 11:09:17;;;;;;;;;;;25.80;40.60;;;26.48;27.35;98625.09;5021918;28;114387;-83
2023/06/05 11:12:01;;;;;;;;;;;25.90;40.40;;;26.57;26.50;98622.56;5016763;27;123971;-84
2023/06/05 11:14:49;;;;;;;;;;;26.00;39.70;;;26.61;26.74;98621.31;5023585;27;124369;-84
2023/06/05 11:17:29;;;;;;;;;;;26.10;39.50;;;26.66;26.49;98620.03;5040422;27;113411;-83
2023/06/05 11:19:56;;;;;;;;;;;26.20;39.20;;;26.70;26.00;98615.09;5043492;27;113985;-82